Time,TemperatureF,DewpointF,PressureIn,WindDirection,WindDirectionDegrees,WindSpeedMPH,WindSpeedGustMPH,Humidity,HourlyPrecipIn,Conditions,Clouds,dailyrainin,SolarRadiationWatts/m^2,SoftwareType,DateUTC
2013-07-15 00:01:00,76.0,73.0,-100.00,NE,49,4.0,6.0,90,0.00,,,0.00,0.000000,,2013-07-15 04:01:00,
2013-07-15 00:33:00,75.0,72.0,-100.00,NNE,33,5.0,6.0,91,0.00,,,0.00,0.000000,,2013-07-15 04:33:00,
2013-07-15 00:42:00,75.0,72.0,-100.00,NNE,33,5.0,6.0,91,0.00,,,0.00,0.000000,,2013-07-15 04:42:00,
2013-07-15 00:54:00,75.0,72.0,-100.00,NNE,33,5.0,6.0,91,0.00,,,0.00,0.000000,,2013-07-15 04:54:00,
2013-07-15 01:02:00,75.0,72.0,-100.00,NNE,33,5.0,6.0,91,0.00,,,0.00,0.000000,,2013-07-15 05:02:00,
2013-07-15 01:32:00,75.0,73.0,-100.00,NE,35,3.0,5.0,92,0.00,,,0.00,0.000000,,2013-07-15 05:32:00,
2013-07-15 01:43:00,75.0,73.0,-100.00,NE,35,3.0,5.0,92,0.00,,,0.00,0.000000,,2013-07-15 05:43:00,
2013-07-15 01:53:00,75.0,73.0,-100.00,NE,35,3.0,5.0,92,0.00,,,0.00,0.000000,,2013-07-15 05:53:00,
2013-07-15 02:02:00,75.0,73.0,-100.00,NE,35,3.0,5.0,92,0.00,,,0.00,0.000000,,2013-07-15 06:02:00,
2013-07-15 02:32:00,74.0,72.0,-100.00,ENE,61,3.0,4.0,92,0.00,,,0.00,0.000000,,2013-07-15 06:32:00,
2013-07-15 02:42:00,74.0,72.0,-100.00,ENE,61,3.0,4.0,92,0.00,,,0.00,0.000000,,2013-07-15 06:42:00,
2013-07-15 02:53:00,74.0,72.0,-100.00,ENE,61,3.0,4.0,92,0.00,,,0.00,0.000000,,2013-07-15 06:53:00,
2013-07-15 03:01:00,74.0,72.0,-100.00,ENE,61,3.0,4.0,92,0.00,,,0.00,0.000000,,2013-07-15 07:01:00,
2013-07-15 03:33:00,74.0,72.0,-100.00,NE,40,2.0,4.0,93,0.00,,,0.00,0.000000,,2013-07-15 07:33:00,
2013-07-15 03:44:00,74.0,72.0,-100.00,NE,40,2.0,4.0,93,0.00,,,0.00,0.000000,,2013-07-15 07:44:00,
2013-07-15 03:53:00,74.0,72.0,-100.00,NE,40,2.0,4.0,93,0.00,,,0.00,0.000000,,2013-07-15 07:53:00,
2013-07-15 04:02:00,74.0,72.0,-100.00,NE,40,2.0,4.0,93,0.00,,,0.00,0.000000,,2013-07-15 08:02:00,
2013-07-15 04:32:00,74.0,72.0,-100.00,NE,49,3.0,5.0,93,0.00,,,0.00,0.000000,,2013-07-15 08:32:00,
2013-07-15 04:43:00,74.0,72.0,-100.00,NE,49,3.0,5.0,93,0.00,,,0.00,0.000000,,2013-07-15 08:43:00,
2013-07-15 04:53:00,74.0,72.0,-100.00,NE,49,3.0,5.0,93,0.00,,,0.00,0.000000,,2013-07-15 08:53:00,
2013-07-15 05:02:00,74.0,72.0,-100.00,NE,49,3.0,5.0,93,0.00,,,0.00,0.000000,,2013-07-15 09:02:00,
2013-07-15 05:32:00,74.0,72.0,-100.00,NE,56,3.0,4.0,94,0.00,,,0.00,0.000000,,2013-07-15 09:32:00,
2013-07-15 05:43:00,74.0,72.0,-100.00,NE,56,3.0,4.0,94,0.00,,,0.00,0.000000,,2013-07-15 09:43:00,
2013-07-15 05:52:00,74.0,72.0,-100.00,NE,56,3.0,4.0,94,0.00,,,0.00,0.000000,,2013-07-15 09:52:00,
2013-07-15 06:02:00,74.0,72.0,-100.00,NE,56,3.0,4.0,94,0.00,,,0.00,0.000000,,2013-07-15 10:02:00,
2013-07-15 06:32:00,73.0,71.0,-100.00,NE,45,2.0,4.0,94,0.00,,,0.00,0.000000,,2013-07-15 10:32:00,
2013-07-15 06:43:00,73.0,71.0,-100.00,NE,45,2.0,4.0,94,0.00,,,0.00,0.000000,,2013-07-15 10:43:00,
2013-07-15 06:53:00,73.0,71.0,-100.00,NE,45,2.0,4.0,94,0.00,,,0.00,0.000000,,2013-07-15 10:53:00,
2013-07-15 07:02:00,73.0,71.0,-100.00,NE,45,2.0,4.0,94,0.00,,,0.00,0.000000,,2013-07-15 11:02:00,
2013-07-15 07:32:00,74.0,72.0,-100.00,North,11,0.0,4.0,94,0.00,,,0.00,45.000000,,2013-07-15 11:32:00,
2013-07-15 07:42:00,74.0,72.0,-100.00,North,11,0.0,4.0,94,0.00,,,0.00,45.000000,,2013-07-15 11:42:00,
2013-07-15 07:52:00,74.0,72.0,-100.00,North,11,0.0,4.0,94,0.00,,,0.00,45.000000,,2013-07-15 11:52:00,
2013-07-15 08:01:00,74.0,72.0,-100.00,North,11,0.0,4.0,94,0.00,,,0.00,45.000000,,2013-07-15 12:01:00,
2013-07-15 08:33:00,78.0,75.0,-100.00,NE,49,4.0,7.0,91,0.00,,,0.00,207.000000,,2013-07-15 12:33:00,
2013-07-15 08:42:00,78.0,75.0,-100.00,NE,49,4.0,7.0,91,0.00,,,0.00,207.000000,,2013-07-15 12:42:00,
2013-07-15 08:53:00,78.0,75.0,-100.00,NE,49,4.0,7.0,91,0.00,,,0.00,207.000000,,2013-07-15 12:53:00,
2013-07-15 09:02:00,78.0,75.0,-100.00,NE,49,4.0,7.0,91,0.00,,,0.00,207.000000,,2013-07-15 13:02:00,
2013-07-15 09:43:00,82.0,74.0,-100.00,East,84,7.0,11.0,77,0.00,,,0.00,456.000000,,2013-07-15 13:43:00,
2013-07-15 09:53:00,82.0,74.0,-100.00,East,84,7.0,11.0,77,0.00,,,0.00,456.000000,,2013-07-15 13:53:00,
2013-07-15 10:02:00,82.0,74.0,-100.00,East,84,7.0,11.0,77,0.00,,,0.00,456.000000,,2013-07-15 14:02:00,
2013-07-15 10:33:00,84.0,73.0,-100.00,East,90,5.0,11.0,69,0.00,,,0.00,601.000000,,2013-07-15 14:33:00,
2013-07-15 10:43:00,84.0,73.0,-100.00,East,90,5.0,11.0,69,0.00,,,0.00,601.000000,,2013-07-15 14:43:00,
2013-07-15 11:03:00,84.0,73.0,-100.00,East,90,5.0,11.0,69,0.00,,,0.00,601.000000,,2013-07-15 15:03:00,
2013-07-15 11:05:00,86.0,70.0,-100.00,ENE,68,8.0,13.0,60,0.00,,,0.00,756.000000,,2013-07-15 15:05:00,
2013-07-15 11:41:00,86.0,70.0,-100.00,ENE,68,8.0,13.0,60,0.00,,,0.00,756.000000,,2013-07-15 15:41:00,
2013-07-15 11:49:00,86.0,70.0,-100.00,ENE,68,8.0,13.0,60,0.00,,,0.00,756.000000,,2013-07-15 15:49:00,
2013-07-15 12:05:00,87.0,72.0,-100.00,SE,145,3.0,12.0,61,0.00,,,0.00,884.000000,,2013-07-15 16:05:00,
2013-07-15 12:49:00,87.0,72.0,-100.00,SE,145,3.0,12.0,61,0.00,,,0.00,884.000000,,2013-07-15 16:49:00,
2013-07-15 13:05:00,84.0,73.0,-100.00,SE,136,4.0,10.0,70,0.00,,,0.00,602.000000,,2013-07-15 17:05:00,
2013-07-15 14:00:00,84.0,73.0,-100.00,SE,136,4.0,10.0,70,0.00,,,0.00,602.000000,,2013-07-15 18:00:00,
2013-07-15 14:05:00,85.0,73.0,-100.00,ESE,123,9.0,13.0,67,0.00,,,0.00,813.000000,,2013-07-15 18:05:00,
2013-07-15 14:40:00,85.0,73.0,-100.00,ESE,123,9.0,13.0,67,0.00,,,0.00,813.000000,,2013-07-15 18:40:00,
2013-07-15 14:45:00,85.0,73.0,-100.00,ESE,123,9.0,13.0,67,0.00,,,0.00,813.000000,,2013-07-15 18:45:00,
2013-07-15 14:59:00,85.0,73.0,-100.00,ESE,123,9.0,13.0,67,0.00,,,0.00,813.000000,,2013-07-15 18:59:00,
2013-07-15 15:05:00,85.0,73.0,-100.00,SSE,147,9.0,15.0,67,0.00,,,0.00,463.000000,,2013-07-15 19:05:00,
2013-07-15 15:57:00,85.0,73.0,-100.00,SSE,147,9.0,15.0,67,0.00,,,0.00,463.000000,,2013-07-15 19:57:00,
2013-07-15 16:43:00,86.0,72.0,-100.00,SSE,147,8.0,16.0,64,0.00,,,0.00,826.000000,,2013-07-15 20:43:00,
2013-07-15 16:59:00,86.0,72.0,-100.00,SSE,147,8.0,16.0,64,0.00,,,0.00,826.000000,,2013-07-15 20:59:00,
2013-07-15 17:40:00,86.0,73.0,-100.00,SSE,148,7.0,14.0,65,0.00,,,0.00,747.000000,,2013-07-15 21:40:00,
2013-07-15 17:48:00,86.0,73.0,-100.00,SSE,148,7.0,14.0,65,0.00,,,0.00,747.000000,,2013-07-15 21:48:00,
2013-07-15 18:02:00,86.0,73.0,-100.00,SSE,148,7.0,14.0,65,0.00,,,0.00,747.000000,,2013-07-15 22:02:00,
2013-07-15 18:05:00,85.0,72.0,-100.00,SE,142,7.0,13.0,66,0.00,,,0.00,506.000000,,2013-07-15 22:05:00,
2013-07-15 18:35:00,85.0,72.0,-100.00,SE,142,7.0,13.0,66,0.00,,,0.00,506.000000,,2013-07-15 22:35:00,
2013-07-15 18:44:00,85.0,72.0,-100.00,SE,142,7.0,13.0,66,0.00,,,0.00,506.000000,,2013-07-15 22:44:00,
2013-07-15 18:54:00,85.0,72.0,-100.00,SE,142,7.0,13.0,66,0.00,,,0.00,506.000000,,2013-07-15 22:54:00,
2013-07-15 19:40:00,84.0,75.0,-100.00,SE,136,6.0,13.0,74,0.00,,,0.00,337.000000,,2013-07-15 23:40:00,
2013-07-15 19:50:00,84.0,75.0,-100.00,SE,136,6.0,13.0,74,0.00,,,0.00,337.000000,,2013-07-15 23:50:00,
2013-07-15 20:03:00,84.0,75.0,-100.00,SE,136,6.0,13.0,74,0.00,,,0.00,337.000000,,2013-07-16 00:03:00,
2013-07-15 20:05:00,81.0,73.0,-100.00,SE,146,4.0,11.0,76,0.00,,,0.00,123.000000,,2013-07-16 00:05:00,
2013-07-15 20:34:00,81.0,73.0,-100.00,SE,146,4.0,11.0,76,0.00,,,0.00,123.000000,,2013-07-16 00:34:00,
2013-07-15 20:51:00,81.0,73.0,-100.00,SE,146,4.0,11.0,76,0.00,,,0.00,123.000000,,2013-07-16 00:51:00,
2013-07-15 21:05:00,77.0,72.0,-100.00,SE,142,2.0,5.0,84,0.00,,,0.00,4.000000,,2013-07-16 01:05:00,
2013-07-15 21:49:00,77.0,72.0,-100.00,SE,142,2.0,5.0,84,0.00,,,0.00,4.000000,,2013-07-16 01:49:00,
2013-07-15 22:02:00,77.0,72.0,-100.00,SE,142,2.0,5.0,84,0.00,,,0.00,4.000000,,2013-07-16 02:02:00,
2013-07-15 22:05:00,75.0,72.0,-100.00,SSW,201,0.0,2.0,89,0.00,,,0.00,0.000000,,2013-07-16 02:05:00,
2013-07-15 22:35:00,75.0,72.0,-100.00,SSW,201,0.0,2.0,89,0.00,,,0.00,0.000000,,2013-07-16 02:35:00,
2013-07-15 22:52:00,75.0,72.0,-100.00,SSW,201,0.0,2.0,89,0.00,,,0.00,0.000000,,2013-07-16 02:52:00,
2013-07-15 23:49:00,73.0,70.0,-100.00,SE,127,0.0,2.0,91,0.00,,,0.00,0.000000,,2013-07-16 03:49:00,
2013-07-15 23:58:00,73.0,70.0,-100.00,SE,127,0.0,2.0,91,0.00,,,0.00,0.000000,,2013-07-16 03:58:00,